Roanoke Regional Woodrum Field Roanoke US
ICAO: KROA
IATA: ROA
Category: Large
Scheduled Services: Yes

Elevation: 1175 ft
TransAlt. 18000 ft.

Airport Communications:
APP/DEP:118.15
ATIS:134.95
CLNC DEL:119.7
GND:121.9
LEESBURG RDO:122.2
TWR:118.3
UNICOM:122.95

KROA Zoom In..

If you have problems with the map follow the link
https://www.worldairports.se/pages/airport.php?
ICAO=KROA

Runways:

(A) RW 06 length 6800 ft width 150 ft
---- / hdg 57

(B) RW 16 length 5810 ft width 150 ft
---- / hdg 156

(C) RW 24 length 6800 ft width 150 ft
---- / hdg 237

(D) RW 34 length 5810 ft width 150 ft
ILS 109.70 / hdg 336

Location; KROA
Day. 16 / Time. 00.54 Zulu
* Altimeter: 30.14
* Temperature: 07° c. 44.6°f.
* Wind from: 030° Speed 05 kn.
Dewpoint: -02° c.
Visibility: 10 Statute Miles.
Clouds: Broken 1000 ft.

KROA 160054Z 03005KT 10SM BKN100 07/M02 A3014 RMK AO2 SLP210 T00671017


Wind From 030°
Speed 05 kn.

 
 
jpsmedia worldairports.se 2019   terms of use